Snodland, United Kingdom
Current Conditions -  °F | °C
As of 7:20 AM on Wednesday 22 Oct 2014 (Local Time) from EGKB Reporting Station
Clear Clear  
Wind Chill: 37°   Ceiling: Unl
Heat Index: 43°   Visibility: 6mi
Dew Point: 37°   Wind: 12mph
Humidity: 81%   Direction: 270°W
Pressure: 30.24"   Gusts: NA
Location:  51.33°N, 0.44°E
Report Text: EGKB 220620Z 27010KT CAVOK 06/03 Q1024
Loading
Personal Weather Stations






























Interactive Weather Map New forecast layout! Learn more

10-Day Weather Forecast

Advertisements
Track Severe Weather on mobile